Hlavní strana
METAR-TAF:

METAR-TAF

Letiště :

Nassau, Bahamy

zeměpisná šířka: 25-03N, zeměpisná délka: 077-28W, výška: 3 m

Aktuální stav počasí

Zpráva byla vytvořena před 52 minutami, v 11:00 UTC
Severovýchodní vítr 10 kt
Teplota 20°C
Vlhkost vzduchu 60%
Tlak 1022 hPa
Viditelnost 10 km a více
Skoro jasno ve výšce 4000 ft

METAR: MYNN 121100Z 04010KT 9999 FEW040 20/12 A3018

Čas: 06:52 (11:52 UTC)

Předpověď počasí

Zpráva byla vytvořena před 1 hodinou a 7 minutami, v 10:45 UTC
Předpověď platná od 12 v 12 UTC do 13 v 12 UTC
Severovýchodní vítr 10 kt
Viditelnost 10 km a více
Polojasno ve výšce 3000 ft

TAF: MYNN 121045Z 1212/1312 04010KT 9999 SCT030

Stav a předpovědi počasí z více než 4 000 letišť (zprávy METAR a TAF).

Červené a žluté tečky na mapě představují dostupné meteorologické stanice.

Když kurzor umístíte na tečku, zobrazí se název stanice.

Pak kliknutím zobrazíte stav a předpověď počasí.

Chcete-li změnit mapu, kliknutím na zelené tlačítko se znaménkem +mapu přiblížíte, kliknutím na zelené tlačítko se znaménkem – mapu oddálíte a kliknutím na zelené šipky přejdete na sousední mapy.


METAR-TAF: